createdAt,value
2022-09-21T00:00:55.014Z,96134.84
2022-09-21T00:03:21.564Z,96135.41
2022-09-21T00:05:48.163Z,96143.59
2022-09-21T00:08:14.703Z,96130.91
2022-09-21T00:10:41.303Z,96137.97
2022-09-21T00:13:07.977Z,96138.03
2022-09-21T00:15:34.987Z,96136.19
2022-09-21T00:18:01.603Z,96141.34
2022-09-21T00:20:28.593Z,96145.44
2022-09-21T00:22:55.161Z,96143.28
2022-09-21T00:25:21.746Z,96145.47
2022-09-21T00:27:48.231Z,96143.06
2022-09-21T00:30:14.794Z,96143.06
2022-09-21T00:32:41.570Z,96139.56
2022-09-21T00:35:08.594Z,96143.06
2022-09-21T00:37:36.059Z,96143.84
2022-09-21T00:40:03.890Z,96138.44
2022-09-21T00:42:33.622Z,96142.78
2022-09-21T00:45:00.793Z,96150.31
2022-09-21T00:47:45.483Z,96144.91
2022-09-21T00:50:17.033Z,96142.72
2022-09-21T00:52:47.722Z,96148.38
2022-09-21T00:55:24.552Z,96146.19
2022-09-21T00:57:56.795Z,96139.41
2022-09-21T01:00:23.541Z,96148.56
2022-09-21T01:02:50.222Z,96141.78
2022-09-21T01:05:16.839Z,96140.91
2022-09-21T01:07:47.047Z,96137.91
2022-09-21T01:10:17.440Z,96141.69
2022-09-21T01:12:55.584Z,96135.69
2022-09-21T01:15:27.755Z,96136.19
2022-09-21T01:18:08.596Z,96137.25
2022-09-21T01:20:43.564Z,96134.78
2022-09-21T01:23:39.911Z,96132.56
2022-09-21T01:26:46.182Z,96139.31
2022-09-21T01:29:36.846Z,96135.25
2022-09-21T01:32:12.975Z,96140.09
2022-09-21T01:34:46.651Z,96138.41
2022-09-21T01:37:18.643Z,96135.13
2022-09-21T01:39:50.576Z,96137.25
2022-09-21T01:42:19.490Z,96135.59
2022-09-21T01:44:47.377Z,96141.53
2022-09-21T01:47:16.485Z,96139.31
2022-09-21T01:49:55.015Z,96134.41
2022-09-21T01:52:33.529Z,96134.13
2022-09-21T01:55:10.344Z,96131.41
2022-09-21T01:57:42.986Z,96136.53
2022-09-21T02:00:10.080Z,96131.13
2022-09-21T02:02:52.948Z,96133.31
2022-09-21T02:05:22.871Z,96138.75
2022-09-21T02:07:51.276Z,96136.59
2022-09-21T02:10:23.474Z,96129.34
2022-09-21T02:12:55.554Z,96136.44
2022-09-21T02:15:28.631Z,96132.19
2022-09-21T02:18:06.851Z,96139.25
2022-09-21T02:20:41.101Z,96128.78
2022-09-21T02:23:29.394Z,96128.03
2022-09-21T02:26:33.740Z,96133.78
2022-09-21T02:29:14.092Z,96129.78
2022-09-21T02:31:52.075Z,96127.44
2022-09-21T02:34:27.982Z,96134.00
2022-09-21T02:37:02.474Z,96131.34
2022-09-21T02:39:38.606Z,96136.00
2022-09-21T02:42:17.225Z,96139.56
2022-09-21T02:44:50.508Z,96145.28
2022-09-21T02:47:22.789Z,96139.13
2022-09-21T02:49:53.179Z,96143.47
2022-09-21T02:52:21.625Z,96140.00
2022-09-21T02:54:51.897Z,96143.56
2022-09-21T02:57:22.001Z,96140.91
2022-09-21T02:59:50.297Z,96142.56
2022-09-21T03:02:16.936Z,96138.31
2022-09-21T03:04:46.866Z,96145.84
2022-09-21T03:07:15.916Z,96146.94
2022-09-21T03:09:42.576Z,96154.53
2022-09-21T03:12:09.094Z,96151.81
2022-09-21T03:14:35.647Z,96141.81
2022-09-21T03:17:02.205Z,96148.56
2022-09-21T03:19:28.730Z,96152.59
2022-09-21T03:21:55.277Z,96149.03
2022-09-21T03:24:21.819Z,96153.88
2022-09-21T03:26:48.390Z,96156.84
2022-09-21T03:29:14.883Z,96148.97
2022-09-21T03:31:41.391Z,96159.75
2022-09-21T03:34:08.012Z,96156.47
2022-09-21T03:36:34.529Z,96162.94
2022-09-21T03:39:01.003Z,96160.47
2022-09-21T03:41:27.784Z,96157.22
2022-09-21T03:43:54.349Z,96158.00
2022-09-21T03:46:20.988Z,96155.00
2022-09-21T03:48:48.089Z,96157.72
2022-09-21T03:51:14.560Z,96160.72
2022-09-21T03:53:41.060Z,96153.66
2022-09-21T03:56:07.657Z,96156.94
2022-09-21T03:58:34.148Z,96152.41
2022-09-21T04:01:04.180Z,96146.75
2022-09-21T04:03:30.813Z,96150.28
2022-09-21T04:05:57.391Z,96144.94
2022-09-21T04:08:23.943Z,96150.66
2022-09-21T04:10:50.601Z,96148.81
2022-09-21T04:13:17.150Z,96153.44
2022-09-21T04:15:43.696Z,96155.66
2022-09-21T04:18:10.356Z,96159.19
2022-09-21T04:20:36.905Z,96154.91
2022-09-21T04:23:03.394Z,96153.00
2022-09-21T04:25:29.921Z,96158.72
2022-09-21T04:27:56.447Z,96156.06
2022-09-21T04:30:22.941Z,96159.59
2022-09-21T04:32:49.458Z,96157.72
2022-09-21T04:35:16.067Z,96162.31
2022-09-21T04:37:42.656Z,96159.66
2022-09-21T04:40:09.457Z,96164.03
2022-09-21T04:42:36.067Z,96159.44
2022-09-21T04:45:02.652Z,96169.97
2022-09-21T04:47:30.919Z,96163.53
2022-09-21T04:49:57.572Z,96164.06
2022-09-21T04:52:24.162Z,96170.03
2022-09-21T04:54:50.726Z,96173.28
2022-09-21T04:57:17.234Z,96178.16
2022-09-21T04:59:43.765Z,96179.50
2022-09-21T05:02:10.306Z,96171.16
2022-09-21T05:04:36.964Z,96180.84
2022-09-21T05:07:03.904Z,96188.16
2022-09-21T05:09:30.457Z,96193.31
2022-09-21T05:11:56.891Z,96199.78
2022-09-21T05:14:23.486Z,96204.38
2022-09-21T05:16:50.017Z,96206.81
2022-09-21T05:19:17.684Z,96199.50
2022-09-21T05:21:44.274Z,96207.88
2022-09-21T05:24:10.738Z,96207.88
2022-09-21T05:26:37.770Z,96205.19
2022-09-21T05:29:04.770Z,96210.84
2022-09-21T05:31:41.348Z,96215.72
2022-09-21T05:34:33.009Z,96212.50
2022-09-21T05:37:08.038Z,96210.59
2022-09-21T05:39:34.809Z,96216.78
2022-09-21T05:42:01.880Z,96217.63
2022-09-21T05:44:28.646Z,96214.63
2022-09-21T05:47:11.846Z,96210.56
2022-09-21T05:49:44.595Z,96216.22
2022-09-21T05:52:13.802Z,96218.38
2022-09-21T05:54:56.847Z,96225.94
2022-09-21T05:58:08.174Z,96227.28
2022-09-21T06:01:23.397Z,96222.66
2022-09-21T06:03:50.281Z,96226.44
2022-09-21T06:06:19.045Z,96232.09
2022-09-21T06:08:45.665Z,96232.06
2022-09-21T06:11:13.046Z,96225.31
2022-09-21T06:13:39.595Z,96226.41
2022-09-21T06:16:06.628Z,96225.59
2022-09-21T06:18:37.713Z,96221.22
2022-09-21T06:21:04.419Z,96218.50
2022-09-21T06:23:31.032Z,96221.47
2022-09-21T06:25:58.733Z,96225.78
2022-09-21T06:28:25.554Z,96225.75
2022-09-21T06:30:53.529Z,96227.63
2022-09-21T06:33:21.027Z,96227.63
2022-09-21T06:35:59.676Z,96228.38
2022-09-21T06:38:27.860Z,96229.69
2022-09-21T06:40:54.811Z,96226.72
2022-09-21T06:43:21.867Z,96226.13
2022-09-21T06:46:04.161Z,96221.75
2022-09-21T06:48:33.235Z,96232.47
2022-09-21T06:51:04.278Z,96226.19
2022-09-21T06:53:32.491Z,96221.78
2022-09-21T06:56:06.350Z,96226.63
2022-09-21T06:58:33.997Z,96230.81
2022-09-21T07:01:10.893Z,96233.19
2022-09-21T07:03:39.404Z,96234.97
2022-09-21T07:06:07.435Z,96226.75
2022-09-21T07:11:21.183Z,96227.09
2022-09-21T07:13:47.639Z,96234.00
2022-09-21T07:16:14.218Z,96232.81
2022-09-21T07:18:44.391Z,96234.59
2022-09-21T07:21:11.766Z,96236.06
2022-09-21T07:23:38.773Z,96240.09
2022-09-21T07:26:11.051Z,96244.28
2022-09-21T07:28:38.103Z,96242.00
2022-09-21T07:31:16.253Z,96237.03
2022-09-21T07:33:44.616Z,96236.88
2022-09-21T07:36:11.197Z,96235.28
2022-09-21T07:38:38.331Z,96239.97
2022-09-21T07:41:05.542Z,96244.75
2022-09-21T07:43:32.114Z,96245.69
2022-09-21T07:45:58.688Z,96243.44
2022-09-21T07:48:25.347Z,96244.38
2022-09-21T07:50:51.808Z,96242.59
2022-09-21T07:53:18.320Z,96241.94
2022-09-21T07:55:44.922Z,96246.97
2022-09-21T07:58:11.660Z,96242.50
2022-09-21T08:00:38.434Z,96240.69
2022-09-21T08:03:05.763Z,96234.06
2022-09-21T08:05:33.076Z,96231.25
2022-09-21T08:07:59.624Z,96249.91
2022-09-21T08:10:26.461Z,96239.97
2022-09-21T08:12:53.049Z,96241.78
2022-09-21T08:15:37.342Z,96238.16
2022-09-21T08:18:06.084Z,96239.19
2022-09-21T08:20:32.688Z,96239.69
2022-09-21T08:22:59.152Z,96242.59
2022-09-21T08:25:25.767Z,96234.38
2022-09-21T08:27:52.372Z,96241.63
2022-09-21T08:30:18.895Z,96236.88
2022-09-21T08:32:51.542Z,96241.59
2022-09-21T08:35:18.555Z,96239.00
2022-09-21T08:37:45.062Z,96233.34
2022-09-21T08:40:12.355Z,96239.84
2022-09-21T08:42:50.605Z,96235.00
2022-09-21T08:45:20.305Z,96238.50
2022-09-21T08:47:53.416Z,96236.06
2022-09-21T08:50:26.568Z,96237.91
2022-09-21T08:53:00.584Z,96238.78
2022-09-21T08:55:27.233Z,96234.75
2022-09-21T08:57:53.831Z,96242.66
2022-09-21T09:00:20.679Z,96242.41
2022-09-21T09:02:59.516Z,96239.91
2022-09-21T09:05:48.359Z,96234.19
2022-09-21T09:08:30.451Z,96236.16
2022-09-21T09:11:34.351Z,96239.13
2022-09-21T09:14:13.083Z,96236.28
2022-09-21T09:16:55.637Z,96235.19
2022-09-21T09:19:37.184Z,96235.25
2022-09-21T09:22:07.386Z,96239.13
2022-09-21T09:24:48.953Z,96239.16
2022-09-21T09:27:32.572Z,96225.81
2022-09-21T09:30:25.237Z,96224.53
2022-09-21T09:33:06.392Z,96235.47
2022-09-21T09:35:50.212Z,96228.88
2022-09-21T09:38:40.251Z,96233.56
2022-09-21T09:41:28.823Z,96228.22
2022-09-21T09:43:58.310Z,96225.97
2022-09-21T09:46:59.866Z,96224.03
2022-09-21T09:49:44.741Z,96225.50
2022-09-21T09:52:13.460Z,96221.16
2022-09-21T09:54:40.240Z,96221.00
2022-09-21T09:57:07.947Z,96218.44
2022-09-21T09:59:54.212Z,96215.53
2022-09-21T10:02:23.458Z,96210.41
2022-09-21T10:04:57.051Z,96199.16
2022-09-21T10:07:37.864Z,96198.34
2022-09-21T10:10:35.894Z,96196.91
2022-09-21T10:13:26.258Z,96202.06
2022-09-21T10:15:56.800Z,96202.84
2022-09-21T10:18:28.023Z,96200.78
2022-09-21T10:21:02.519Z,96193.38
2022-09-21T10:23:31.082Z,96195.94
2022-09-21T10:26:01.651Z,96196.56
2022-09-21T10:28:28.976Z,96196.56
2022-09-21T10:31:17.176Z,96185.47
2022-09-21T10:34:04.596Z,96186.91
2022-09-21T10:36:36.453Z,96186.41
2022-09-21T10:39:17.477Z,96193.50
2022-09-21T10:41:48.880Z,96177.53
2022-09-21T10:44:17.975Z,96191.03
2022-09-21T10:46:45.890Z,96175.22
2022-09-21T10:49:19.760Z,96169.22
2022-09-21T10:51:49.376Z,96171.09
2022-09-21T10:54:22.390Z,96169.72
2022-09-21T10:57:00.427Z,96165.66
2022-09-21T10:59:32.768Z,96169.16
2022-09-21T11:02:01.059Z,96171.34
2022-09-21T11:04:45.151Z,96168.91
2022-09-21T11:07:22.416Z,96168.03
2022-09-21T11:10:12.077Z,96167.38
2022-09-21T11:13:03.894Z,96159.97
2022-09-21T11:15:43.243Z,96161.13
2022-09-21T11:18:22.067Z,96162.16
2022-09-21T11:21:06.995Z,96150.84
2022-09-21T11:23:55.417Z,96158.66
2022-09-21T11:26:29.865Z,96152.78
2022-09-21T11:29:05.502Z,96142.72
2022-09-21T11:31:37.808Z,96136.25
2022-09-21T11:34:24.512Z,96141.25
2022-09-21T11:37:03.972Z,96130.53
2022-09-21T11:39:36.336Z,96135.22
2022-09-21T11:42:20.935Z,96129.25
2022-09-21T11:44:54.537Z,96130.75
2022-09-21T11:47:49.149Z,96125.22
2022-09-21T11:50:45.283Z,96123.09
2022-09-21T11:53:47.345Z,96120.38
2022-09-21T11:56:32.120Z,96115.94
2022-09-21T11:59:12.889Z,96118.44
2022-09-21T12:01:56.921Z,96116.41
2022-09-21T12:04:42.764Z,96101.81
2022-09-21T12:07:27.624Z,96107.66
2022-09-21T12:10:08.833Z,96110.41
2022-09-21T12:12:49.507Z,96103.50
2022-09-21T12:15:27.552Z,96100.22
2022-09-21T12:18:04.080Z,96100.84
2022-09-21T12:20:50.407Z,96093.19
2022-09-21T12:23:51.078Z,96097.41
2022-09-21T12:26:25.198Z,96102.44
2022-09-21T12:29:02.824Z,96096.25
2022-09-21T12:31:35.566Z,96090.75
2022-09-21T12:34:13.733Z,96092.25
2022-09-21T12:36:59.962Z,96093.84
2022-09-21T12:39:37.936Z,96089.59
2022-09-21T12:42:22.195Z,96089.75
2022-09-21T12:45:06.814Z,96088.56
2022-09-21T12:48:24.273Z,96089.50
2022-09-21T12:51:00.382Z,96083.75
2022-09-21T12:53:31.620Z,96085.97
2022-09-21T12:56:13.037Z,96092.16
2022-09-21T12:58:45.602Z,96089.06
2022-09-21T13:01:25.205Z,96092.19
2022-09-21T13:04:11.463Z,96089.09
2022-09-21T13:09:44.023Z,96086.72
2022-09-21T13:12:13.271Z,96079.53
2022-09-21T13:14:47.147Z,96074.63
2022-09-21T13:17:23.784Z,96080.31
2022-09-21T13:20:01.656Z,96074.16
2022-09-21T13:22:32.645Z,96073.47
2022-09-21T13:25:18.153Z,96072.09
2022-09-21T13:27:58.556Z,96070.91
2022-09-21T13:30:29.701Z,96066.53
2022-09-21T13:32:56.296Z,96068.59
2022-09-21T13:35:47.612Z,96068.16
2022-09-21T13:38:29.032Z,96070.91
2022-09-21T13:41:04.682Z,96071.59
2022-09-21T13:43:59.922Z,96069.53
2022-09-21T13:46:34.860Z,96065.19
2022-09-21T13:49:13.707Z,96059.69
2022-09-21T13:52:05.051Z,96063.94
2022-09-21T13:54:38.955Z,96058.00
2022-09-21T13:57:18.080Z,96049.88
2022-09-21T13:59:47.324Z,96050.13
2022-09-21T14:02:36.399Z,96055.19
2022-09-21T14:05:43.406Z,96055.28
2022-09-21T14:08:15.895Z,96039.97
2022-09-21T14:10:57.057Z,96049.22
2022-09-21T14:13:26.587Z,96044.75
2022-09-21T14:15:53.056Z,96044.50
2022-09-21T14:18:35.351Z,96043.47
2022-09-21T14:21:07.919Z,96033.50
2022-09-21T14:23:35.937Z,96035.22
2022-09-21T14:26:20.388Z,96036.91
2022-09-21T14:28:51.602Z,96034.63
2022-09-21T14:31:24.669Z,96035.56
2022-09-21T14:33:54.578Z,96035.72
2022-09-21T14:36:38.678Z,96042.09
2022-09-21T14:39:07.950Z,96041.56
2022-09-21T14:41:41.961Z,96040.44
2022-09-21T14:44:19.720Z,96038.72
2022-09-21T14:47:34.793Z,96040.09
2022-09-21T14:50:27.558Z,96037.59
2022-09-21T14:53:26.089Z,96044.31
2022-09-21T14:56:19.111Z,96038.28
2022-09-21T14:59:07.767Z,96042.38
2022-09-21T15:01:34.243Z,96035.16
2022-09-21T15:04:09.499Z,96038.94
2022-09-21T15:07:00.108Z,96034.25
2022-09-21T15:09:48.323Z,96026.16
2022-09-21T15:12:19.469Z,96027.41
2022-09-21T15:15:17.850Z,96026.50
2022-09-21T15:17:59.723Z,96027.06
2022-09-21T15:20:28.864Z,96019.75
2022-09-21T15:22:57.209Z,96019.75
2022-09-21T15:25:26.422Z,96025.31
2022-09-21T15:27:53.099Z,96020.91
2022-09-21T15:30:28.380Z,96021.09
2022-09-21T15:32:57.653Z,96015.38
2022-09-21T15:35:27.490Z,96026.78
2022-09-21T15:37:55.330Z,96013.06
2022-09-21T15:40:28.111Z,96024.00
2022-09-21T15:43:18.885Z,96018.94
2022-09-21T15:46:00.534Z,96021.63
2022-09-21T15:48:29.530Z,96021.81
2022-09-21T15:50:59.235Z,96023.97
2022-09-21T15:53:31.708Z,96023.22
2022-09-21T15:55:59.082Z,96025.19
2022-09-21T15:58:32.569Z,96027.25
2022-09-21T16:00:59.445Z,96026.03
2022-09-21T16:03:26.174Z,96033.56
2022-09-21T16:05:54.521Z,96030.72
2022-09-21T16:08:26.443Z,96031.59
2022-09-21T16:10:53.385Z,96026.50
2022-09-21T16:13:24.389Z,96031.75
2022-09-21T16:16:01.632Z,96031.47
2022-09-21T16:18:45.259Z,96035.72
2022-09-21T16:21:16.891Z,96040.13
2022-09-21T16:23:43.525Z,96036.31
2022-09-21T16:26:19.356Z,96051.31
2022-09-21T16:28:46.139Z,96051.06
2022-09-21T16:31:24.947Z,96048.03
2022-09-21T16:33:54.193Z,96046.59
2022-09-21T16:36:20.623Z,96049.53
2022-09-21T16:38:47.373Z,96058.69
2022-09-21T16:41:14.156Z,96058.88
2022-09-21T16:43:40.844Z,96055.53
2022-09-21T16:46:07.390Z,96058.13
2022-09-21T16:48:34.228Z,96055.56
2022-09-21T16:51:01.080Z,96057.66
2022-09-21T16:53:27.605Z,96054.00
2022-09-21T16:55:54.533Z,96049.06
2022-09-21T16:58:21.926Z,96051.47
2022-09-21T17:00:55.905Z,96051.84
2022-09-21T17:03:22.948Z,96061.34
2022-09-21T17:05:49.675Z,96065.69
2022-09-21T17:08:16.214Z,96053.97
2022-09-21T17:10:45.349Z,96063.31
2022-09-21T17:13:12.378Z,96062.19
2022-09-21T17:15:43.542Z,96060.59
2022-09-21T17:18:12.279Z,96074.22
2022-09-21T17:20:42.119Z,96063.63
2022-09-21T17:23:08.751Z,96071.00
2022-09-21T17:25:36.151Z,96076.78
2022-09-21T17:28:10.354Z,96072.75
2022-09-21T17:30:36.998Z,96068.38
2022-09-21T17:33:03.511Z,96068.72
2022-09-21T17:35:38.956Z,96080.72
2022-09-21T17:38:07.137Z,96083.72
2022-09-21T17:40:36.948Z,96074.72
2022-09-21T17:43:13.345Z,96066.34
2022-09-21T17:45:49.259Z,96076.88
2022-09-21T17:48:23.981Z,96074.44
2022-09-21T17:50:50.983Z,96074.41
2022-09-21T17:53:17.902Z,96077.38
2022-09-21T17:55:50.255Z,96078.44
2022-09-21T17:58:30.979Z,96085.44
2022-09-21T18:01:07.722Z,96082.34
2022-09-21T18:03:36.548Z,96086.94
2022-09-21T18:06:03.935Z,96084.94
2022-09-21T18:08:32.801Z,96080.25
2022-09-21T18:11:11.623Z,96091.09
2022-09-21T18:13:47.239Z,96089.09
2022-09-21T18:16:20.657Z,96094.63
2022-09-21T18:18:59.377Z,96096.69
2022-09-21T18:21:26.282Z,96088.31
2022-09-21T18:24:02.817Z,96087.16
2022-09-21T18:26:29.837Z,96092.38
2022-09-21T18:28:56.596Z,96092.00
2022-09-21T18:31:31.819Z,96094.84
2022-09-21T18:34:23.132Z,96099.09
2022-09-21T18:37:01.107Z,96096.78
2022-09-21T18:39:39.377Z,96106.94
2022-09-21T18:42:31.336Z,96106.81
2022-09-21T18:45:09.305Z,96105.31
2022-09-21T18:47:41.337Z,96108.81
2022-09-21T18:50:26.259Z,96109.94
2022-09-21T18:53:15.520Z,96113.56
2022-09-21T18:55:42.264Z,96120.19
2022-09-21T18:58:09.285Z,96119.78
2022-09-21T19:00:36.194Z,96117.16
2022-09-21T19:03:16.946Z,96115.94
2022-09-21T19:05:56.958Z,96115.53
2022-09-21T19:08:37.970Z,96107.47
2022-09-21T19:11:24.600Z,96118.72
2022-09-21T19:14:08.913Z,96115.31
2022-09-21T19:16:41.768Z,96118.09
2022-09-21T19:19:22.993Z,96106.53
2022-09-21T19:21:55.728Z,96107.91
2022-09-21T19:24:43.375Z,96107.50
2022-09-21T19:27:15.746Z,96118.13
2022-09-21T19:30:09.896Z,96111.50
2022-09-21T19:32:46.147Z,96104.75
2022-09-21T19:35:19.147Z,96111.84
2022-09-21T19:37:47.035Z,96108.94
2022-09-21T19:40:15.932Z,96107.91
2022-09-21T19:43:10.152Z,96110.19
2022-09-21T19:46:10.634Z,96116.50
2022-09-21T19:48:46.080Z,96116.28
2022-09-21T19:51:35.578Z,96115.25
2022-09-21T19:54:03.315Z,96121.25
2022-09-21T19:56:31.282Z,96121.84
2022-09-21T19:58:58.268Z,96121.63
2022-09-21T20:01:24.778Z,96121.91
2022-09-21T20:03:51.396Z,96118.97
2022-09-21T20:06:26.902Z,96109.28
2022-09-21T20:09:26.840Z,96122.09
2022-09-21T20:11:53.304Z,96116.44
2022-09-21T20:14:26.907Z,96116.22
2022-09-21T20:16:56.582Z,96121.72
2022-09-21T20:19:38.016Z,96110.94
2022-09-21T20:22:09.648Z,96115.34
2022-09-21T20:25:03.411Z,96113.50
2022-09-21T20:27:32.803Z,96114.88
2022-09-21T20:29:59.246Z,96118.16
2022-09-21T20:32:25.816Z,96117.66
2022-09-21T20:34:52.444Z,96115.81
2022-09-21T20:37:18.914Z,96109.09
2022-09-21T20:39:45.532Z,96112.38
2022-09-21T20:42:24.334Z,96108.91
2022-09-21T20:44:51.286Z,96115.72
2022-09-21T20:47:18.405Z,96109.25
2022-09-21T20:49:48.690Z,96110.91
2022-09-21T20:52:16.333Z,96117.72
2022-09-21T20:54:49.024Z,96110.47
2022-09-21T20:57:19.039Z,96114.56
2022-09-21T20:59:45.857Z,96115.94
2022-09-21T21:02:14.265Z,96113.81
2022-09-21T21:04:41.006Z,96113.56
2022-09-21T21:07:07.820Z,96112.25
2022-09-21T21:09:34.409Z,96111.19
2022-09-21T21:12:01.225Z,96114.19
2022-09-21T21:14:27.943Z,96108.56
2022-09-21T21:16:54.645Z,96115.34
2022-09-21T21:19:21.258Z,96115.91
2022-09-21T21:21:47.760Z,96114.59
2022-09-21T21:24:14.385Z,96103.22
2022-09-21T21:29:27.480Z,96104.41
2022-09-21T21:31:54.108Z,96108.19
2022-09-21T21:34:20.702Z,96107.94
2022-09-21T21:36:47.210Z,96112.81
2022-09-21T21:39:13.684Z,96106.09
2022-09-21T21:41:40.912Z,96110.44
2022-09-21T21:44:09.547Z,96105.31
2022-09-21T21:46:36.087Z,96096.97
2022-09-21T21:49:02.724Z,96108.09
2022-09-21T21:51:29.475Z,96110.56
2022-09-21T21:53:56.275Z,96104.09
2022-09-21T21:56:22.957Z,96101.66
2022-09-21T21:58:54.212Z,96109.53
2022-09-21T22:01:23.977Z,96107.41
2022-09-21T22:03:56.032Z,96096.06
2022-09-21T22:06:23.355Z,96102.84
2022-09-21T22:08:50.511Z,96106.91
2022-09-21T22:11:17.862Z,96100.19
2022-09-21T22:13:45.446Z,96099.13
2022-09-21T22:16:15.182Z,96105.91
2022-09-21T22:18:42.824Z,96105.38
2022-09-21T22:21:28.469Z,96109.75
2022-09-21T22:23:57.580Z,96113.81
2022-09-21T22:26:26.152Z,96104.38
2022-09-21T22:28:55.245Z,96105.75
2022-09-21T22:31:24.824Z,96102.78
2022-09-21T22:33:51.412Z,96097.66
2022-09-21T22:36:19.978Z,96100.09
2022-09-21T22:38:47.423Z,96103.66
2022-09-21T22:41:17.144Z,96102.59
2022-09-21T22:43:44.647Z,96103.94
2022-09-21T22:46:11.745Z,96101.00
2022-09-21T22:48:38.842Z,96096.94
2022-09-21T22:51:05.947Z,96093.72
2022-09-21T22:53:32.459Z,96101.59
2022-09-21T22:56:09.440Z,96091.34
2022-09-21T22:58:38.569Z,96083.53
2022-09-21T23:01:08.121Z,96090.28
2022-09-21T23:03:35.047Z,96088.13
2022-09-21T23:06:01.680Z,96081.41
2022-09-21T23:08:28.653Z,96083.56
2022-09-21T23:10:55.905Z,96081.44
2022-09-21T23:13:22.654Z,96079.31
2022-09-21T23:15:49.174Z,96078.75
2022-09-21T23:18:15.629Z,96079.03
2022-09-21T23:20:42.167Z,96082.00
2022-09-21T23:23:08.647Z,96073.38
2022-09-21T23:25:35.318Z,96075.56
2022-09-21T23:28:01.806Z,96072.34
2022-09-21T23:30:28.547Z,96068.28
2022-09-21T23:32:55.043Z,96065.88
2022-09-21T23:35:21.520Z,96069.13
2022-09-21T23:37:48.118Z,96066.69
2022-09-21T23:40:14.822Z,96063.75
2022-09-21T23:42:41.347Z,96068.31
2022-09-21T23:45:08.357Z,96068.09
2022-09-21T23:47:34.856Z,96063.25
2022-09-21T23:50:01.403Z,96060.81
2022-09-21T23:52:27.880Z,96062.19
2022-09-21T23:54:54.446Z,96062.47
2022-09-21T23:57:20.959Z,96063.53
2022-09-21T23:59:47.437Z,96058.41
